createdAt,value
2019-04-25T00:01:42.545Z,99.90
2019-04-25T00:04:11.740Z,99.90
2019-04-25T00:06:38.664Z,99.90
2019-04-25T00:09:09.510Z,99.90
2019-04-25T00:11:37.791Z,99.90
2019-04-25T00:14:05.282Z,99.90
2019-04-25T00:16:33.563Z,99.90
2019-04-25T00:19:01.742Z,99.90
2019-04-25T00:21:33.847Z,99.90
2019-04-25T00:24:02.710Z,99.90
2019-04-25T00:26:31.201Z,99.90
2019-04-25T00:28:57.687Z,99.90
2019-04-25T00:31:26.049Z,99.90
2019-04-25T00:33:53.290Z,99.90
2019-04-25T00:36:19.899Z,99.90
2019-04-25T00:38:47.870Z,99.90
2019-04-25T00:41:14.839Z,99.90
2019-04-25T00:43:42.235Z,99.90
2019-04-25T00:46:11.296Z,99.90
2019-04-25T00:48:37.918Z,99.90
2019-04-25T00:51:04.581Z,99.90
2019-04-25T00:53:32.356Z,99.90
2019-04-25T00:55:58.956Z,99.90
2019-04-25T00:58:45.356Z,99.90
2019-04-25T01:01:14.200Z,99.90
2019-04-25T01:03:43.283Z,99.90
2019-04-25T01:06:09.435Z,99.90
2019-04-25T01:08:36.067Z,99.90
2019-04-25T01:11:02.727Z,99.90
2019-04-25T01:13:29.201Z,99.90
2019-04-25T01:15:55.742Z,99.90
2019-04-25T01:18:23.167Z,99.90
2019-04-25T01:20:50.383Z,99.90
2019-04-25T01:23:17.701Z,99.90
2019-04-25T01:25:46.002Z,99.90
2019-04-25T01:28:13.288Z,99.90
2019-04-25T01:30:39.997Z,99.90
2019-04-25T01:33:07.283Z,99.90
2019-04-25T01:35:35.717Z,99.90
2019-04-25T01:38:09.861Z,99.90
2019-04-25T01:40:51.012Z,99.90
2019-04-25T01:43:23.357Z,99.90
2019-04-25T01:45:50.387Z,99.90
2019-04-25T01:48:16.889Z,99.90
2019-04-25T01:50:43.812Z,99.90
2019-04-25T01:53:10.400Z,99.90
2019-04-25T01:55:37.425Z,99.90
2019-04-25T01:58:04.017Z,99.90
2019-04-25T02:00:33.265Z,99.90
2019-04-25T02:03:00.321Z,99.90
2019-04-25T02:05:26.971Z,99.90
2019-04-25T02:07:54.988Z,99.90
2019-04-25T02:10:23.404Z,99.90
2019-04-25T02:12:52.691Z,99.90
2019-04-25T02:15:23.469Z,99.90
2019-04-25T02:17:51.090Z,99.90
2019-04-25T02:20:18.287Z,99.90
2019-04-25T02:22:44.731Z,99.90
2019-04-25T02:25:11.309Z,99.90
2019-04-25T02:27:37.807Z,99.90
2019-04-25T02:30:06.909Z,99.90
2019-04-25T02:32:34.372Z,99.90
2019-04-25T02:35:05.526Z,99.90
2019-04-25T02:37:30.311Z,99.90
2019-04-25T02:39:59.726Z,99.90
2019-04-25T02:42:25.398Z,99.90
2019-04-25T02:44:56.133Z,99.90
2019-04-25T02:47:24.912Z,99.90
2019-04-25T02:50:10.126Z,99.90
2019-04-25T02:52:38.546Z,99.90
2019-04-25T02:55:10.481Z,99.90
2019-04-25T02:57:34.724Z,99.90
2019-04-25T03:00:05.950Z,99.90
2019-04-25T03:02:31.647Z,99.90
2019-04-25T03:04:59.490Z,99.90
2019-04-25T03:07:26.464Z,99.90
2019-04-25T03:09:54.766Z,99.90
2019-04-25T03:12:30.703Z,99.90
2019-04-25T03:14:49.851Z,99.90
2019-04-25T03:17:16.459Z,99.90
2019-04-25T03:19:50.646Z,99.90
2019-04-25T03:22:26.417Z,99.90
2019-04-25T03:24:50.345Z,99.90
2019-04-25T03:27:16.888Z,99.90
2019-04-25T03:29:44.223Z,99.90
2019-04-25T03:32:15.590Z,99.90
2019-04-25T03:34:40.010Z,99.90
2019-04-25T03:37:07.601Z,99.90
2019-04-25T03:39:34.085Z,99.90
2019-04-25T03:42:00.367Z,99.90
2019-04-25T03:44:26.701Z,99.90
2019-04-25T03:46:53.533Z,99.90
2019-04-25T03:49:20.172Z,99.90
2019-04-25T03:51:46.677Z,99.90
2019-04-25T03:54:14.287Z,99.90
2019-04-25T03:56:49.839Z,99.90
2019-04-25T03:59:09.261Z,99.90
2019-04-25T04:01:35.753Z,99.90
2019-04-25T04:04:04.567Z,99.90
2019-04-25T04:06:31.527Z,99.90
2019-04-25T04:08:58.191Z,99.90
2019-04-25T04:11:24.746Z,99.90
2019-04-25T04:13:51.255Z,99.90
2019-04-25T04:16:19.755Z,99.90
2019-04-25T04:18:48.396Z,99.90
2019-04-25T04:21:19.786Z,99.90
2019-04-25T04:23:48.107Z,99.90
2019-04-25T04:26:15.499Z,99.90
2019-04-25T04:28:43.522Z,99.90
2019-04-25T04:31:10.264Z,99.90
2019-04-25T04:33:36.915Z,99.90
2019-04-25T04:36:03.900Z,99.90
2019-04-25T04:38:30.312Z,99.90
2019-04-25T04:40:56.692Z,99.90
2019-04-25T04:43:23.958Z,99.90
2019-04-25T04:45:51.543Z,99.90
2019-04-25T04:48:18.835Z,99.90
2019-04-25T04:50:45.421Z,99.90
2019-04-25T04:53:12.845Z,99.90
2019-04-25T04:55:39.678Z,99.90
2019-04-25T04:58:06.144Z,99.90
2019-04-25T05:00:33.879Z,99.90
2019-04-25T05:03:08.260Z,99.90
2019-04-25T05:05:43.997Z,99.90
2019-04-25T05:08:24.954Z,99.90
2019-04-25T05:10:51.630Z,99.90
2019-04-25T05:13:18.280Z,99.90
2019-04-25T05:15:44.807Z,99.90
2019-04-25T05:18:11.534Z,99.90
2019-04-25T05:20:38.705Z,99.90
2019-04-25T05:23:05.072Z,99.90
2019-04-25T05:25:31.482Z,99.90
2019-04-25T05:28:02.865Z,99.90
2019-04-25T05:30:31.056Z,99.90
2019-04-25T05:32:57.710Z,99.90
2019-04-25T05:35:25.362Z,99.90
2019-04-25T05:37:53.342Z,99.90
2019-04-25T05:40:20.155Z,99.90
2019-04-25T05:42:51.287Z,99.90
2019-04-25T05:45:20.000Z,99.90
2019-04-25T05:47:46.621Z,99.90
2019-04-25T05:50:13.892Z,99.90
2019-04-25T05:52:40.722Z,99.90
2019-04-25T05:55:07.407Z,99.90
2019-04-25T05:57:45.231Z,99.90
2019-04-25T06:00:05.633Z,99.90
2019-04-25T06:02:33.735Z,99.90
2019-04-25T06:05:00.782Z,99.90
2019-04-25T06:07:27.885Z,99.90
2019-04-25T06:09:56.130Z,99.90
2019-04-25T06:12:30.927Z,99.90
2019-04-25T06:14:57.438Z,99.90
2019-04-25T06:17:26.010Z,99.90
2019-04-25T06:19:54.506Z,99.90
2019-04-25T06:22:28.760Z,99.90
2019-04-25T06:24:57.175Z,99.90
2019-04-25T06:27:25.946Z,99.90
2019-04-25T06:29:59.001Z,99.90
2019-04-25T06:32:24.948Z,99.90
2019-04-25T06:34:52.291Z,99.90
2019-04-25T06:37:18.663Z,99.90
2019-04-25T06:39:45.406Z,99.90
2019-04-25T06:42:11.949Z,99.90
2019-04-25T06:44:53.544Z,99.90
2019-04-25T06:47:27.781Z,99.90
2019-04-25T06:49:54.322Z,99.90
2019-04-25T06:52:21.599Z,99.90
2019-04-25T06:54:48.197Z,99.90
2019-04-25T06:57:14.575Z,99.90
2019-04-25T06:59:41.679Z,99.90
2019-04-25T07:02:09.642Z,99.90
2019-04-25T07:04:36.248Z,99.90
2019-04-25T07:07:10.592Z,99.90
2019-04-25T07:09:32.835Z,99.90
2019-04-25T07:11:59.806Z,99.90
2019-04-25T07:14:27.075Z,99.90
2019-04-25T07:16:54.606Z,99.90
2019-04-25T07:19:21.207Z,99.90
2019-04-25T07:21:47.792Z,99.90
2019-04-25T07:24:15.147Z,99.90
2019-04-25T07:26:44.601Z,99.90
2019-04-25T07:29:28.447Z,99.90
2019-04-25T07:31:56.966Z,99.90
2019-04-25T07:34:26.504Z,99.90
2019-04-25T07:36:53.883Z,99.90
2019-04-25T07:39:20.605Z,99.90
2019-04-25T07:41:47.041Z,99.90
2019-04-25T07:44:14.697Z,99.90
2019-04-25T07:46:43.202Z,99.90
2019-04-25T07:49:09.937Z,99.90
2019-04-25T07:51:36.733Z,99.90
2019-04-25T07:54:04.494Z,99.90
2019-04-25T07:56:31.436Z,99.90
2019-04-25T07:58:57.996Z,99.90
2019-04-25T08:01:24.796Z,99.90
2019-04-25T08:03:51.232Z,99.90
2019-04-25T08:06:17.898Z,99.90
2019-04-25T08:08:44.522Z,99.90
2019-04-25T08:11:11.837Z,99.90
2019-04-25T08:13:48.267Z,99.90
2019-04-25T08:16:16.665Z,99.90
2019-04-25T08:18:44.924Z,99.90
2019-04-25T08:21:11.582Z,99.90
2019-04-25T08:23:41.092Z,99.90
2019-04-25T08:26:07.687Z,99.90
2019-04-25T08:28:48.929Z,99.90
2019-04-25T08:31:03.637Z,99.90
2019-04-25T08:33:30.197Z,99.90
2019-04-25T08:36:06.550Z,99.90
2019-04-25T08:38:25.017Z,99.90
2019-04-25T08:40:51.728Z,99.90
2019-04-25T08:43:18.049Z,99.90
2019-04-25T08:45:44.568Z,99.90
2019-04-25T08:48:11.204Z,99.90
2019-04-25T08:50:54.848Z,99.90
2019-04-25T08:53:23.814Z,99.90
2019-04-25T08:55:55.217Z,99.90
2019-04-25T08:58:29.645Z,99.90
2019-04-25T09:01:06.998Z,99.90
2019-04-25T09:03:41.104Z,99.90
2019-04-25T09:06:09.151Z,99.90
2019-04-25T09:08:36.809Z,99.90
2019-04-25T09:11:04.102Z,99.90
2019-04-25T09:13:30.665Z,99.90
2019-04-25T09:15:56.981Z,99.90
2019-04-25T09:18:23.985Z,99.90
2019-04-25T09:20:50.713Z,99.90
2019-04-25T09:23:17.313Z,99.90
2019-04-25T09:25:45.794Z,99.90
2019-04-25T09:28:14.055Z,99.90
2019-04-25T09:30:40.946Z,99.90
2019-04-25T09:33:07.528Z,99.90
2019-04-25T09:35:34.226Z,99.90
2019-04-25T09:38:00.827Z,99.90
2019-04-25T09:40:27.737Z,99.90
2019-04-25T09:42:54.535Z,99.90
2019-04-25T09:45:26.185Z,99.90
2019-04-25T09:47:53.587Z,99.90
2019-04-25T09:50:38.217Z,99.90
2019-04-25T09:53:05.191Z,99.90
2019-04-25T09:55:47.187Z,99.90
2019-04-25T09:58:19.038Z,99.90
2019-04-25T10:00:50.177Z,99.90
2019-04-25T10:03:16.706Z,99.90
2019-04-25T10:05:43.336Z,99.90
2019-04-25T10:08:09.960Z,99.90
2019-04-25T10:10:36.839Z,99.90
2019-04-25T10:13:05.989Z,99.90
2019-04-25T10:15:49.178Z,99.90
2019-04-25T10:18:15.786Z,99.90
2019-04-25T10:20:43.491Z,99.90
2019-04-25T10:23:11.673Z,99.90
2019-04-25T10:25:38.177Z,99.90
2019-04-25T10:28:05.618Z,99.90
2019-04-25T10:30:32.344Z,99.90
2019-04-25T10:32:58.927Z,99.90
2019-04-25T10:35:25.549Z,99.90
2019-04-25T10:37:53.751Z,99.90
2019-04-25T10:40:23.391Z,99.90
2019-04-25T10:42:50.703Z,99.90
2019-04-25T10:45:23.143Z,99.90
2019-04-25T10:47:46.714Z,99.90
2019-04-25T10:50:14.522Z,99.90
2019-04-25T10:52:41.546Z,99.90
2019-04-25T10:55:09.481Z,99.90
2019-04-25T10:57:36.118Z,99.90
2019-04-25T11:00:24.154Z,99.90
2019-04-25T11:02:50.872Z,99.90
2019-04-25T11:05:17.587Z,99.90
2019-04-25T11:07:44.522Z,99.90
2019-04-25T11:10:13.961Z,99.90
2019-04-25T11:12:42.836Z,99.90
2019-04-25T11:15:10.585Z,99.90
2019-04-25T11:17:37.163Z,99.90
2019-04-25T11:20:05.560Z,99.80
2019-04-25T11:22:34.107Z,99.90
2019-04-25T11:25:00.723Z,99.90
2019-04-25T11:27:27.584Z,99.90
2019-04-25T11:30:08.230Z,99.70
2019-04-25T11:32:25.894Z,98.50
2019-04-25T11:34:53.516Z,98.60
2019-04-25T11:37:23.885Z,98.80
2019-04-25T11:39:53.134Z,97.80
2019-04-25T11:42:21.167Z,97.90
2019-04-25T11:44:47.789Z,96.20
2019-04-25T11:47:15.374Z,96.50
2019-04-25T11:49:44.793Z,97.20
2019-04-25T11:52:11.149Z,96.40
2019-04-25T11:54:37.824Z,96.50
2019-04-25T11:57:04.733Z,96.10
2019-04-25T11:59:31.474Z,96.20
2019-04-25T12:01:58.199Z,96.00
2019-04-25T12:04:24.850Z,96.20
2019-04-25T12:06:51.498Z,96.40
2019-04-25T12:09:18.649Z,95.60
2019-04-25T12:11:46.818Z,96.10
2019-04-25T12:14:14.919Z,96.00
2019-04-25T12:16:41.598Z,95.50
2019-04-25T12:19:08.223Z,95.60
2019-04-25T12:21:34.768Z,94.80
2019-04-25T12:24:03.684Z,95.60
2019-04-25T12:26:29.771Z,95.50
2019-04-25T12:28:56.664Z,94.90
2019-04-25T12:31:23.781Z,95.60
2019-04-25T12:33:50.270Z,93.60
2019-04-25T12:36:16.918Z,94.00
2019-04-25T12:38:44.989Z,93.40
2019-04-25T12:41:12.075Z,93.90
2019-04-25T12:43:40.312Z,92.80
2019-04-25T12:46:08.607Z,92.80
2019-04-25T12:48:35.233Z,93.70
2019-04-25T12:51:03.218Z,92.30
2019-04-25T12:53:29.865Z,92.70
2019-04-25T12:55:56.604Z,92.90
2019-04-25T12:58:23.519Z,92.50
2019-04-25T13:00:54.060Z,92.00
2019-04-25T13:03:18.405Z,91.00
2019-04-25T13:05:44.972Z,90.70
2019-04-25T13:08:11.572Z,91.20
2019-04-25T13:10:38.232Z,90.50
2019-04-25T13:13:04.868Z,90.00
2019-04-25T13:15:33.442Z,89.10
2019-04-25T13:18:00.212Z,89.60
2019-04-25T13:20:26.902Z,89.10
2019-04-25T13:22:53.369Z,88.40
2019-04-25T13:25:21.950Z,88.00
2019-04-25T13:28:04.051Z,87.70
2019-04-25T13:30:44.517Z,86.50
2019-04-25T13:33:13.348Z,87.80
2019-04-25T13:35:48.765Z,87.70
2019-04-25T13:38:15.401Z,87.50
2019-04-25T13:40:42.045Z,85.60
2019-04-25T13:43:08.602Z,85.30
2019-04-25T13:45:35.158Z,84.10
2019-04-25T13:48:03.349Z,85.30
2019-04-25T13:50:30.179Z,85.60
2019-04-25T13:52:56.635Z,85.30
2019-04-25T13:55:23.978Z,86.00
2019-04-25T13:57:53.370Z,83.50
2019-04-25T14:00:23.123Z,82.70
2019-04-25T14:02:50.956Z,82.90
2019-04-25T14:05:20.299Z,83.70
2019-04-25T14:07:47.838Z,81.50
2019-04-25T14:10:14.587Z,78.30
2019-04-25T14:12:43.524Z,80.00
2019-04-25T14:15:13.827Z,80.70
2019-04-25T14:17:48.087Z,79.90
2019-04-25T14:20:19.380Z,79.70
2019-04-25T14:22:45.936Z,79.50
2019-04-25T14:25:14.935Z,79.30
2019-04-25T14:27:43.367Z,79.10
2019-04-25T14:30:13.470Z,80.20
2019-04-25T14:32:40.235Z,80.30
2019-04-25T14:35:07.053Z,80.90
2019-04-25T14:37:39.464Z,78.40
2019-04-25T14:40:04.078Z,76.40
2019-04-25T14:42:30.756Z,76.10
2019-04-25T14:44:57.440Z,76.10
2019-04-25T14:47:24.451Z,76.70
2019-04-25T14:49:51.090Z,77.00
2019-04-25T14:52:17.695Z,79.10
2019-04-25T14:54:46.306Z,79.20
2019-04-25T14:57:17.332Z,78.40
2019-04-25T14:59:43.922Z,78.40
2019-04-25T15:02:10.707Z,76.20
2019-04-25T15:04:37.274Z,75.30
2019-04-25T15:07:03.837Z,75.40
2019-04-25T15:09:30.488Z,76.00
2019-04-25T15:11:57.007Z,75.80
2019-04-25T15:14:23.720Z,76.40
2019-04-25T15:16:51.186Z,77.10
2019-04-25T15:19:17.753Z,77.70
2019-04-25T15:21:44.383Z,78.40
2019-04-25T15:24:11.035Z,78.30
2019-04-25T15:26:40.243Z,78.20
2019-04-25T15:29:06.345Z,78.10
2019-04-25T15:31:32.861Z,78.50
2019-04-25T15:34:02.272Z,78.50
2019-04-25T15:36:42.039Z,77.70
2019-04-25T15:39:26.986Z,78.20
2019-04-25T15:41:55.541Z,78.10
2019-04-25T15:44:40.806Z,79.10
2019-04-25T15:47:09.284Z,80.00
2019-04-25T15:49:36.840Z,79.90
2019-04-25T15:52:05.108Z,79.60
2019-04-25T15:54:31.777Z,79.80
2019-04-25T15:56:58.451Z,78.20
2019-04-25T15:59:27.431Z,76.60
2019-04-25T16:01:54.353Z,77.70
2019-04-25T16:04:20.964Z,78.50
2019-04-25T16:06:47.577Z,77.00
2019-04-25T16:09:15.971Z,74.80
2019-04-25T16:11:42.974Z,72.70
2019-04-25T16:14:09.676Z,72.10
2019-04-25T16:16:36.529Z,71.70
2019-04-25T16:19:03.492Z,71.80
2019-04-25T16:21:31.166Z,71.70
2019-04-25T16:23:58.217Z,72.00
2019-04-25T16:26:25.136Z,72.40
2019-04-25T16:28:52.074Z,73.00
2019-04-25T16:31:20.857Z,72.90
2019-04-25T16:33:47.587Z,74.10
2019-04-25T16:36:14.726Z,73.10
2019-04-25T16:38:41.595Z,75.30
2019-04-25T16:41:09.034Z,74.00
2019-04-25T16:43:37.665Z,74.20
2019-04-25T16:46:04.482Z,74.60
2019-04-25T16:48:31.284Z,74.30
2019-04-25T16:50:57.976Z,74.90
2019-04-25T16:53:24.859Z,75.00
2019-04-25T16:55:51.813Z,73.70
2019-04-25T16:58:18.772Z,74.00
2019-04-25T17:00:47.568Z,74.50
2019-04-25T17:03:15.936Z,76.60
2019-04-25T17:05:43.115Z,77.60
2019-04-25T17:08:10.404Z,78.40
2019-04-25T17:10:37.265Z,78.70
2019-04-25T17:13:04.173Z,79.50
2019-04-25T17:15:48.886Z,80.70
2019-04-25T17:18:17.504Z,81.10
2019-04-25T17:20:53.001Z,81.70
2019-04-25T17:23:19.674Z,82.30
2019-04-25T17:25:46.640Z,82.60
2019-04-25T17:28:13.935Z,82.50
2019-04-25T17:30:42.535Z,82.70
2019-04-25T17:33:26.142Z,83.00
2019-04-25T17:36:00.655Z,83.50
2019-04-25T17:38:37.958Z,84.30
2019-04-25T17:41:04.807Z,84.80
2019-04-25T17:43:32.009Z,85.10
2019-04-25T17:45:59.787Z,85.60
2019-04-25T17:48:26.728Z,86.10
2019-04-25T17:50:53.369Z,86.10
2019-04-25T17:53:20.179Z,86.50
2019-04-25T17:55:47.059Z,87.80
2019-04-25T17:58:13.802Z,89.70
2019-04-25T18:00:42.441Z,90.30
2019-04-25T18:03:10.267Z,90.70
2019-04-25T18:05:37.710Z,91.10
2019-04-25T18:08:04.450Z,91.60
2019-04-25T18:10:31.459Z,92.00
2019-04-25T18:12:58.374Z,92.40
2019-04-25T18:15:30.318Z,92.60
2019-04-25T18:17:57.459Z,92.80
2019-04-25T18:20:26.421Z,93.40
2019-04-25T18:22:55.016Z,93.60
2019-04-25T18:25:33.055Z,94.20
2019-04-25T18:28:10.949Z,94.60
2019-04-25T18:30:38.995Z,94.60
2019-04-25T18:33:17.076Z,94.90
2019-04-25T18:35:45.909Z,95.50
2019-04-25T18:38:20.330Z,96.10
2019-04-25T18:41:05.278Z,96.80
2019-04-25T18:43:43.451Z,96.50
2019-04-25T18:46:18.197Z,96.20
2019-04-25T18:48:44.997Z,96.00
2019-04-25T18:51:12.606Z,95.60
2019-04-25T18:53:41.256Z,95.60
2019-04-25T18:59:08.379Z,95.40
2019-04-25T19:01:54.833Z,95.80
2019-04-25T19:04:29.772Z,96.00
2019-04-25T19:06:58.333Z,96.40
2019-04-25T19:09:25.584Z,97.80
2019-04-25T19:11:52.422Z,97.70
2019-04-25T19:14:19.225Z,97.60
2019-04-25T19:16:46.123Z,97.80
2019-04-25T19:19:12.828Z,98.10
2019-04-25T19:21:40.607Z,98.50
2019-04-25T19:24:08.551Z,99.00
2019-04-25T19:26:35.498Z,99.00
2019-04-25T19:29:04.261Z,99.20
2019-04-25T19:31:53.023Z,98.60
2019-04-25T19:34:20.283Z,98.20
2019-04-25T19:36:47.156Z,98.20
2019-04-25T19:39:14.217Z,97.90
2019-04-25T19:41:43.043Z,97.90
2019-04-25T19:44:14.508Z,97.80
2019-04-25T19:46:42.965Z,98.00
2019-04-25T19:49:10.007Z,98.50
2019-04-25T19:51:37.862Z,99.10
2019-04-25T19:54:06.030Z,99.40
2019-04-25T19:56:33.775Z,99.60
2019-04-25T19:59:00.773Z,99.90
2019-04-25T20:01:27.601Z,99.90
2019-04-25T20:03:58.478Z,99.90
2019-04-25T20:06:35.901Z,99.90
2019-04-25T20:09:15.393Z,99.90
2019-04-25T20:11:45.209Z,99.90
2019-04-25T20:14:12.732Z,99.90
2019-04-25T20:16:41.278Z,99.90
2019-04-25T20:19:09.522Z,99.90
2019-04-25T20:21:39.773Z,99.90
2019-04-25T20:24:06.638Z,99.90
2019-04-25T20:26:33.441Z,99.90
2019-04-25T20:29:00.086Z,99.90
2019-04-25T20:31:27.052Z,99.90
2019-04-25T20:34:05.312Z,99.90
2019-04-25T20:36:23.921Z,99.90
2019-04-25T20:38:51.201Z,99.90
2019-04-25T20:41:18.125Z,99.90
2019-04-25T20:43:44.894Z,99.90
2019-04-25T20:46:11.668Z,99.90
2019-04-25T20:48:38.569Z,99.90
2019-04-25T20:51:05.436Z,99.90
2019-04-25T20:53:32.357Z,99.90
2019-04-25T20:55:59.286Z,99.90
2019-04-25T20:58:26.065Z,99.90
2019-04-25T21:00:55.836Z,99.90
2019-04-25T21:03:23.081Z,99.90
2019-04-25T21:05:51.715Z,99.90
2019-04-25T21:08:18.703Z,99.90
2019-04-25T21:10:45.963Z,99.90
2019-04-25T21:13:15.688Z,99.90
2019-04-25T21:15:47.148Z,99.90
2019-04-25T21:18:28.053Z,99.90
2019-04-25T21:20:57.192Z,99.90
2019-04-25T21:23:24.062Z,99.90
2019-04-25T21:25:51.642Z,99.90
2019-04-25T21:28:18.291Z,99.90
2019-04-25T21:30:45.154Z,99.90
2019-04-25T21:33:11.934Z,99.90
2019-04-25T21:35:38.976Z,99.90
2019-04-25T21:38:05.817Z,99.90
2019-04-25T21:40:46.584Z,99.90
2019-04-25T21:43:15.457Z,99.90
2019-04-25T21:45:42.355Z,99.90
2019-04-25T21:48:09.364Z,99.90
2019-04-25T21:50:36.322Z,99.90
2019-04-25T21:53:03.515Z,99.90
2019-04-25T21:55:30.535Z,99.90
2019-04-25T21:57:58.082Z,99.90
2019-04-25T22:00:42.279Z,99.90
2019-04-25T22:03:09.719Z,99.90
2019-04-25T22:05:36.822Z,99.90
2019-04-25T22:08:04.865Z,99.90
2019-04-25T22:10:31.647Z,99.90
2019-04-25T22:13:11.337Z,99.90
2019-04-25T22:15:27.999Z,99.90
2019-04-25T22:17:56.718Z,99.90
2019-04-25T22:20:23.286Z,99.90
2019-04-25T22:22:49.842Z,99.90
2019-04-25T22:25:16.351Z,99.90
2019-04-25T22:27:43.818Z,99.90
2019-04-25T22:30:12.489Z,99.90
2019-04-25T22:32:46.954Z,99.90
2019-04-25T22:35:21.282Z,99.90
2019-04-25T22:37:47.825Z,99.90
2019-04-25T22:40:14.649Z,99.90
2019-04-25T22:42:41.160Z,99.90
2019-04-25T22:45:08.053Z,99.90
2019-04-25T22:47:34.643Z,99.90
2019-04-25T22:50:02.536Z,99.90
2019-04-25T22:52:29.362Z,99.90
2019-04-25T22:54:56.042Z,99.90
2019-04-25T22:57:22.678Z,99.90
2019-04-25T22:59:49.288Z,99.90
2019-04-25T23:02:26.735Z,99.90
2019-04-25T23:05:09.879Z,99.90
2019-04-25T23:07:32.730Z,99.90
2019-04-25T23:09:59.479Z,99.90
2019-04-25T23:12:26.401Z,99.90
2019-04-25T23:14:52.981Z,99.90
2019-04-25T23:17:19.641Z,99.90
2019-04-25T23:19:46.490Z,99.90
2019-04-25T23:22:13.623Z,99.90
2019-04-25T23:24:42.210Z,99.90
2019-04-25T23:27:29.236Z,99.90
2019-04-25T23:29:55.676Z,99.90
2019-04-25T23:32:22.889Z,99.90
2019-04-25T23:34:49.352Z,99.90
2019-04-25T23:37:15.753Z,99.90
2019-04-25T23:39:42.690Z,99.90
2019-04-25T23:42:09.513Z,99.90
2019-04-25T23:44:36.304Z,99.90
2019-04-25T23:47:02.967Z,99.90
2019-04-25T23:49:29.420Z,99.90
2019-04-25T23:51:56.164Z,99.90
2019-04-25T23:54:22.713Z,99.90
2019-04-25T23:56:49.443Z,99.90
2019-04-25T23:59:16.049Z,99.90
